Time;durP1;ratioP1;P1;durP2;ratioP2;P2;SDS_P1;SDS_P2;PMS_P1;PMS_P2;Temp;Humidity;BMP_temperature;BMP_pressure;BME280_temperature;BME280_humidity;BME280_pressure;Samples;Min_cycle;Max_cycle;Signal;HPM_P1;HPM_P2
2021/06/16 00:01:21;;;;;;;9.57;3.80;;;17.70;93.00;;;;;;4910258;29;20064;-90
2021/06/16 00:04:07;;;;;;;5.70;3.42;;;17.70;93.00;;;;;;4860836;29;20049;-90
2021/06/16 00:06:55;;;;;;;11.50;5.40;;;17.60;93.40;;;;;;4889352;29;20048;-91
2021/06/16 00:09:42;;;;;;;14.80;4.90;;;17.50;93.70;;;;;;4882010;29;20053;-91
2021/06/16 00:12:21;;;;;;;8.45;3.60;;;17.40;93.80;;;;;;4886812;29;20420;-90
2021/06/16 00:15:38;;;;;;;8.25;4.15;;;16.10;93.90;;;;;;4859717;29;20057;-89
2021/06/16 00:18:20;;;;;;;10.35;4.05;;;17.30;94.10;;;;;;4881370;29;20063;-92
2021/06/16 00:21:06;;;;;;;15.13;5.40;;;17.30;94.00;;;;;;4905163;29;20063;-91
2021/06/16 00:23:52;;;;;;;12.27;4.05;;;17.30;94.20;;;;;;4879257;29;20068;-90
2021/06/16 00:26:37;;;;;;;5.55;3.50;;;17.30;94.40;;;;;;4885651;29;20060;-91
2021/06/16 00:29:21;;;;;;;10.27;4.50;;;17.30;94.50;;;;;;4903114;29;20059;-91
2021/06/16 00:32:05;;;;;;;9.02;4.18;;;17.20;94.40;;;;;;4894019;29;20406;-90
2021/06/16 00:35:04;;;;;;;8.63;4.03;;;17.20;94.40;;;;;;4893156;29;20060;-91
2021/06/16 00:37:53;;;;;;;10.10;4.80;;;17.20;94.50;;;;;;4896304;29;20064;-90
2021/06/16 00:40:35;;;;;;;12.95;4.07;;;17.20;94.60;;;;;;4860038;29;20065;-91
2021/06/16 00:43:31;;;;;;;9.45;3.83;;;17.30;94.70;;;;;;4879767;29;20049;-91
2021/06/16 00:46:16;;;;;;;10.52;4.30;;;17.20;94.70;;;;;;4883676;29;20045;-90
2021/06/16 00:49:00;;;;;;;8.77;4.43;;;17.20;95.00;;;;;;4884016;29;20063;-91
2021/06/16 00:51:45;;;;;;;9.38;4.32;;;17.20;94.90;;;;;;4878236;29;20055;-91
2021/06/16 00:54:35;;;;;;;9.73;3.88;;;17.20;95.10;;;;;;4901288;29;20059;-90
2021/06/16 00:57:36;;;;;;;16.70;5.50;;;17.10;95.40;;;;;;4865234;29;20057;-90
2021/06/16 01:00:27;;;;;;;12.13;4.53;;;17.00;95.50;;;;;;4903001;29;20056;-91
2021/06/16 01:03:23;;;;;;;11.55;4.00;;;16.90;95.60;;;;;;4898786;29;20053;-91
2021/06/16 01:06:48;;;;;;;9.40;4.43;;;17.00;95.80;;;;;;4887980;29;20049;-91
2021/06/16 01:09:50;;;;;;;14.65;4.22;;;16.80;96.10;;;;;;4895697;29;20056;-90
2021/06/16 01:13:08;;;;;;;19.25;5.10;;;16.80;96.40;;;;;;4896948;29;20050;-91
2021/06/16 01:16:16;;;;;;;13.82;4.93;;;16.70;96.50;;;;;;4868234;29;20520;-91
2021/06/16 01:19:07;;;;;;;7.57;4.40;;;16.80;96.60;;;;;;4873933;29;20052;-91
2021/06/16 01:22:00;;;;;;;11.80;4.82;;;16.70;96.80;;;;;;4859253;29;20045;-90
2021/06/16 01:24:33;;;;;;;11.27;5.13;;;16.70;97.00;;;;;;4882709;29;20063;-90
2021/06/16 01:27:16;;;;;;;9.75;4.35;;;18.10;97.70;;;;;;4882495;29;20063;-91
2021/06/16 01:30:05;;;;;;;9.82;3.88;;;16.60;97.50;;;;;;4872860;29;20059;-90
2021/06/16 01:32:49;;;;;;;10.32;4.80;;;16.60;97.30;;;;;;4897480;29;20052;-91
2021/06/16 01:35:36;;;;;;;7.07;4.35;;;16.60;97.70;;;;;;4912449;29;20512;-90
2021/06/16 01:38:24;;;;;;;13.50;5.35;;;16.50;97.80;;;;;;4894536;29;20056;-90
2021/06/16 01:41:10;;;;;;;15.10;5.25;;;16.50;97.90;;;;;;4908891;29;20057;-90
2021/06/16 01:43:56;;;;;;;7.40;4.20;;;16.50;98.10;;;;;;4861473;29;20071;-90
2021/06/16 01:46:31;;;;;;;10.10;4.75;;;16.50;98.40;;;;;;4872395;29;20088;-90
2021/06/16 01:49:17;;;;;;;14.75;4.40;;;16.40;98.40;;;;;;4883682;29;20053;-90
2021/06/16 01:51:46;;;;;;;8.50;5.18;;;16.10;98.50;;;;;;4892379;29;20056;-91
2021/06/16 01:54:32;;;;;;;12.63;5.43;;;16.30;98.80;;;;;;4894712;29;20053;-90
2021/06/16 01:57:17;;;;;;;8.50;4.85;;;16.30;98.80;;;;;;4878172;29;20053;-91
2021/06/16 02:00:00;;;;;;;11.70;5.05;;;16.30;99.00;;;;;;4873839;29;20065;-91
2021/06/16 02:02:48;;;;;;;12.00;4.63;;;16.30;99.60;;;;;;4882108;29;20059;-91
2021/06/16 02:05:31;;;;;;;8.95;5.05;;;16.20;99.70;;;;;;4874134;29;20067;-91
2021/06/16 02:08:21;;;;;;;14.15;5.30;;;16.10;99.70;;;;;;4885220;29;20067;-91
2021/06/16 02:10:54;;;;;;;9.07;4.15;;;16.00;99.80;;;;;;4896691;29;20061;-92
2021/06/16 02:13:53;;;;;;;12.30;5.30;;;16.00;99.90;;;;;;4864181;29;20049;-91
2021/06/16 02:16:43;;;;;;;9.07;5.13;;;16.00;99.90;;;;;;4907090;29;20052;-90
2021/06/16 02:19:21;;;;;;;11.30;5.53;;;15.90;99.90;;;;;;4863258;29;20053;-90
2021/06/16 02:22:05;;;;;;;12.02;4.65;;;15.90;99.90;;;;;;4897531;29;20053;-89
2021/06/16 02:24:36;;;;;;;13.63;5.72;;;15.90;99.90;;;;;;4862575;29;20054;-91
2021/06/16 02:27:05;;;;;;;11.73;5.63;;;15.80;99.90;;;;;;4863408;29;20402;-91
2021/06/16 02:29:34;;;;;;;11.35;4.88;;;15.80;99.90;;;;;;4895466;29;20043;-92
2021/06/16 02:32:03;;;;;;;17.65;6.32;;;15.80;99.90;;;;;;4882300;29;20063;-90
2021/06/16 02:34:32;;;;;;;11.75;5.20;;;15.70;99.90;;;;;;4864835;29;20053;-91
2021/06/16 02:37:05;;;;;;;11.75;5.70;;;15.70;99.90;;;;;;4892065;29;20058;-92
2021/06/16 02:40:01;;;;;;;14.05;5.80;;;15.70;99.90;;;;;;4886130;29;20036;-91
2021/06/16 02:42:33;;;;;;;8.52;4.47;;;15.70;99.90;;;;;;4872959;29;20041;-91
2021/06/16 02:45:02;;;;;;;15.68;5.78;;;15.70;99.90;;;;;;4879880;29;20043;-91
2021/06/16 02:47:33;;;;;;;9.90;5.15;;;15.70;99.90;;;;;;4885812;29;20045;-91
2021/06/16 02:50:04;;;;;;;15.15;5.95;;;14.60;99.90;;;;;;4887539;29;20059;-90
2021/06/16 02:52:35;;;;;;;15.23;6.67;;;15.60;99.90;;;;;;4864352;29;20053;-90
2021/06/16 02:55:06;;;;;;;11.55;5.63;;;15.60;99.90;;;;;;4865412;29;20049;-89
2021/06/16 02:57:37;;;;;;;11.38;5.85;;;14.80;99.90;;;;;;4875570;29;20038;-91
2021/06/16 03:00:10;;;;;;;12.40;5.35;;;15.40;99.90;;;;;;4881822;29;20063;-90
2021/06/16 03:02:49;;;;;;;11.95;4.70;;;15.40;99.90;;;;;;4876686;29;20064;-91
2021/06/16 03:05:22;;;;;;;24.30;6.38;;;15.50;99.90;;;;;;4871740;29;20088;-91
2021/06/16 03:07:55;;;;;;;10.65;5.68;;;15.40;99.90;;;;;;4886519;29;20157;-91
2021/06/16 03:10:28;;;;;;;14.48;5.95;;;15.70;99.90;;;;;;4892978;29;20051;-91
2021/06/16 03:13:00;;;;;;;16.20;5.80;;;15.40;99.90;;;;;;4887469;29;20064;-90
2021/06/16 03:15:39;;;;;;;13.55;5.15;;;15.40;99.90;;;;;;4881182;29;20064;-90
2021/06/16 03:18:10;;;;;;;11.77;5.95;;;15.30;99.90;;;;;;4889045;29;20060;-89
2021/06/16 03:20:40;;;;;;;17.02;6.53;;;15.30;99.90;;;;;;4871597;29;20052;-90
2021/06/16 03:23:13;;;;;;;16.42;6.30;;;15.30;99.90;;;;;;4874902;29;20045;-91
2021/06/16 03:25:44;;;;;;;13.77;5.55;;;15.30;99.90;;;;;;4873048;29;20064;-90
2021/06/16 03:28:25;;;;;;;15.70;7.57;;;15.30;99.90;;;;;;4860485;29;20525;-89
2021/06/16 03:30:57;;;;;;;15.90;6.25;;;15.10;99.90;;;;;;4875992;29;20846;-90
2021/06/16 03:33:27;;;;;;;13.25;5.70;;;15.20;99.90;;;;;;4899840;29;20053;-91
2021/06/16 03:35:59;;;;;;;9.52;5.32;;;15.20;99.90;;;;;;4876133;29;20049;-90
2021/06/16 03:38:31;;;;;;;11.20;5.63;;;15.20;99.90;;;;;;4883458;29;20054;-90
2021/06/16 03:41:00;;;;;;;;;;;15.20;99.90;;;;;;4872277;29;20049;-90
2021/06/16 03:43:30;;;;;;;9.88;5.32;;;15.20;99.90;;;;;;4876375;29;19924;-91
2021/06/16 03:46:13;;;;;;;9.95;5.47;;;15.20;99.90;;;;;;4882479;29;20049;-90
2021/06/16 03:48:48;;;;;;;9.82;5.90;;;15.10;99.90;;;;;;4895057;29;20053;-89
2021/06/16 03:51:19;;;;;;;15.00;6.35;;;15.10;99.90;;;;;;4879646;29;20055;-90
2021/06/16 03:53:51;;;;;;;15.57;6.80;;;14.80;99.90;;;;;;4877343;29;20045;-91
2021/06/16 03:56:23;;;;;;;9.65;4.82;;;14.90;99.90;;;;;;4866341;29;20040;-90
2021/06/16 03:58:53;;;;;;;12.25;5.75;;;14.90;99.90;;;;;;4890815;29;20736;-91
2021/06/16 04:01:26;;;;;;;17.95;7.43;;;14.80;99.90;;;;;;4862952;29;20041;-92
2021/06/16 04:04:04;;;;;;;14.32;5.72;;;14.80;99.90;;;;;;4859348;29;20072;-90
2021/06/16 04:06:45;;;;;;;19.05;7.28;;;14.80;99.90;;;;;;4876061;29;20059;-89
2021/06/16 04:09:17;;;;;;;10.40;6.15;;;14.70;99.90;;;;;;4891082;29;20080;-90
2021/06/16 04:11:52;;;;;;;24.60;6.63;;;14.70;99.90;;;;;;4867981;29;20052;-91
2021/06/16 04:14:25;;;;;;;15.05;6.65;;;14.70;99.90;;;;;;4879463;29;20063;-90
2021/06/16 04:16:56;;;;;;;16.15;6.80;;;14.70;99.90;;;;;;4878852;29;20049;-91
2021/06/16 04:19:52;;;;;;;;;;;14.60;99.90;;;;;;4868782;29;20072;-89
2021/06/16 04:22:29;;;;;;;14.57;7.10;;;14.70;99.90;;;;;;4868271;29;19942;-90
2021/06/16 04:25:00;;;;;;;12.68;6.93;;;14.70;99.90;;;;;;4862526;29;20305;-91
2021/06/16 04:27:35;;;;;;;13.82;6.65;;;14.70;99.90;;;;;;4896549;29;20063;-90
2021/06/16 04:30:07;;;;;;;15.93;6.68;;;14.80;99.90;;;;;;4861766;29;20053;-91
2021/06/16 04:32:39;;;;;;;23.50;7.88;;;14.80;99.90;;;;;;4905589;29;20053;-90
2021/06/16 04:35:11;;;;;;;35.80;8.52;;;14.80;99.90;;;;;;4900902;29;20044;-90
2021/06/16 04:37:53;;;;;;;15.32;7.07;;;14.80;99.90;;;;;;4887591;29;20057;-91
2021/06/16 04:40:35;;;;;;;10.75;6.82;;;14.90;99.90;;;;;;4875500;29;20041;-91
2021/06/16 04:43:18;;;;;;;13.30;6.32;;;14.90;99.90;;;;;;4888054;29;20063;-90
2021/06/16 04:45:46;;;;;;;15.27;7.63;;;14.90;99.90;;;;;;4889692;29;20060;-91
2021/06/16 04:48:15;;;;;;;11.48;6.75;;;15.00;99.90;;;;;;4874559;29;20281;-91
2021/06/16 04:50:47;;;;;;;19.63;7.75;;;15.10;99.90;;;;;;4864604;29;20061;-90
2021/06/16 04:53:15;;;;;;;15.95;7.53;;;15.10;99.90;;;;;;4881212;29;20049;-90
2021/06/16 04:55:50;;;;;;;13.13;6.80;;;15.10;99.90;;;;;;4889052;29;20055;-90
2021/06/16 04:58:20;;;;;;;14.68;7.05;;;14.30;99.90;;;;;;4906326;29;20115;-90
2021/06/16 05:01:03;;;;;;;16.45;6.43;;;15.30;99.90;;;;;;4870573;29;20054;-93
2021/06/16 05:03:32;;;;;;;13.93;7.35;;;15.30;99.90;;;;;;4875765;29;20053;-90
2021/06/16 05:06:01;;;;;;;13.35;6.63;;;15.40;99.90;;;;;;4868929;29;20056;-91
2021/06/16 05:08:46;;;;;;;16.55;8.23;;;15.40;99.90;;;;;;4890494;29;20049;-91
2021/06/16 05:11:28;;;;;;;17.63;8.18;;;15.60;99.90;;;;;;4881313;29;20067;-90
2021/06/16 05:14:08;;;;;;;14.35;7.82;;;15.70;99.90;;;;;;4878094;29;20481;-90
2021/06/16 05:16:39;;;;;;;15.65;8.00;;;15.70;99.90;;;;;;4872014;29;20053;-90
2021/06/16 05:19:19;;;;;;;13.60;7.45;;;15.80;99.90;;;;;;4854219;29;20063;-90
2021/06/16 05:21:52;;;;;;;21.95;8.20;;;15.90;99.90;;;;;;4874362;29;20049;-89
2021/06/16 05:24:24;;;;;;;15.82;7.03;;;16.00;99.90;;;;;;4865944;29;20057;-92
2021/06/16 05:26:57;;;;;;;14.25;7.03;;;14.90;99.90;;;;;;4889207;29;20055;-91
2021/06/16 05:29:39;;;;;;;15.77;8.40;;;16.30;99.90;;;;;;4863982;29;20049;-91
2021/06/16 05:32:28;;;;;;;13.88;8.02;;;16.30;99.90;;;;;;4892083;29;20061;-91
2021/06/16 05:35:02;;;;;;;22.67;9.95;;;16.30;99.90;;;;;;4884364;29;20052;-90
2021/06/16 05:37:36;;;;;;;20.30;8.48;;;16.30;99.90;;;;;;4878501;29;20049;-90
2021/06/16 05:40:15;;;;;;;20.08;8.35;;;16.50;99.90;;;;;;4891336;29;20056;-92
2021/06/16 05:42:57;;;;;;;16.35;7.97;;;17.70;99.90;;;;;;4878386;29;20061;-91
2021/06/16 05:45:36;;;;;;;13.80;7.15;;;16.60;99.90;;;;;;4895060;29;20076;-91
2021/06/16 05:48:21;;;;;;;14.60;7.85;;;16.70;99.90;;;;;;4872554;29;20060;-90
2021/06/16 05:51:26;;;;;;;16.80;7.78;;;16.80;99.90;;;;;;4895451;29;20055;-91
2021/06/16 05:54:12;;;;;;;16.70;6.65;;;16.90;99.90;;;;;;4878450;29;20057;-91
2021/06/16 05:56:59;;;;;;;13.35;7.32;;;17.00;99.90;;;;;;4857065;29;20053;-90
2021/06/16 05:59:29;;;;;;;20.80;7.38;;;17.10;99.90;;;;;;4880326;29;20071;-92
2021/06/16 06:02:06;;;;;;;17.65;6.95;;;17.20;99.90;;;;;;4885543;29;20057;-92
2021/06/16 06:04:39;;;;;;;16.40;7.57;;;17.30;99.90;;;;;;4865542;29;20057;-91
2021/06/16 06:07:27;;;;;;;14.38;7.15;;;17.40;99.90;;;;;;4874509;29;20053;-90
2021/06/16 06:10:25;;;;;;;12.60;6.70;;;17.50;99.90;;;;;;4880375;29;20060;-91
2021/06/16 06:13:03;;;;;;;15.13;7.93;;;17.50;99.90;;;;;;4886936;29;20044;-91
2021/06/16 06:15:54;;;;;;;13.25;7.82;;;17.00;99.90;;;;;;4884180;29;20053;-90
2021/06/16 06:18:53;;;;;;;12.40;6.33;;;17.70;99.90;;;;;;4891488;29;20070;-90
2021/06/16 06:21:38;;;;;;;20.25;7.30;;;17.90;99.90;;;;;;4888463;29;20064;-90
2021/06/16 06:24:30;;;;;;;19.25;6.78;;;17.90;99.90;;;;;;4902188;24;20049;-89
2021/06/16 06:27:18;;;;;;;23.70;7.90;;;18.00;99.90;;;;;;4846194;29;20069;-89
2021/06/16 06:29:57;;;;;;;30.13;9.65;;;18.20;99.90;;;;;;4878070;29;20647;-91
2021/06/16 06:36:33;;;;;;;19.67;8.48;;;18.20;99.90;;;;;;4892298;29;20031;-89
2021/06/16 06:39:22;;;;;;;22.83;9.40;;;18.60;99.90;;;;;;4878960;29;20493;-89
2021/06/16 06:42:15;;;;;;;17.52;9.80;;;18.40;99.90;;;;;;4880736;29;20056;-89
2021/06/16 06:45:14;;;;;;;18.85;8.07;;;18.50;99.90;;;;;;4885391;29;20057;-92
2021/06/16 06:47:48;;;;;;;25.13;10.68;;;18.60;99.90;;;;;;4871642;29;20068;-90
2021/06/16 06:50:26;;;;;;;22.70;9.00;;;18.70;99.90;;;;;;4888018;29;20057;-90
2021/06/16 06:52:58;;;;;;;24.83;9.65;;;18.80;99.90;;;;;;4860149;29;20053;-89
2021/06/16 06:55:59;;;;;;;18.25;8.75;;;18.80;99.90;;;;;;4885204;29;20045;-92
2021/06/16 06:59:39;;;;;;;19.90;9.95;;;19.00;99.90;;;;;;5263566;23;21266;-89
2021/06/16 07:06:00;;;;;;;20.98;9.02;;;19.20;99.90;;;;;;5184743;23;19912;-92
2021/06/16 07:08:48;;;;;;;31.88;10.60;;;19.30;99.90;;;;;;4882378;29;20041;-86
2021/06/16 07:11:16;;;;;;;20.38;9.10;;;19.40;99.90;;;;;;4862577;29;20063;-89
2021/06/16 07:13:46;;;;;;;23.95;9.48;;;19.50;99.90;;;;;;4860634;29;20060;-91
2021/06/16 07:16:17;;;;;;;19.30;9.68;;;19.70;99.90;;;;;;4866995;29;20059;-88
2021/06/16 07:19:15;;;;;;;25.77;10.55;;;19.50;99.90;;;;;;4870383;29;20055;-90
2021/06/16 07:21:49;;;;;;;20.98;10.23;;;20.10;99.90;;;;;;4876854;29;20053;-90
2021/06/16 07:24:22;;;;;;;19.35;9.82;;;20.00;99.90;;;;;;4871387;29;20060;-90
2021/06/16 07:27:36;;;;;;;19.42;12.80;;;20.10;99.90;;;;;;4875289;29;20061;-91
2021/06/16 07:30:14;;;;;;;25.98;11.80;;;20.30;99.90;;;;;;4866891;29;20057;-92
2021/06/16 07:32:53;;;;;;;21.38;9.70;;;20.40;99.90;;;;;;4860622;29;20049;-91
2021/06/16 07:35:30;;;;;;;34.97;13.07;;;20.50;99.90;;;;;;4872642;29;20068;-90
2021/06/16 07:38:13;;;;;;;18.98;10.40;;;20.60;99.90;;;;;;4857110;29;20053;-91
2021/06/16 07:40:44;;;;;;;18.33;10.02;;;20.60;99.90;;;;;;4858969;29;20061;-90
2021/06/16 07:43:23;;;;;;;16.00;8.75;;;20.70;99.90;;;;;;4871412;29;20069;-91
2021/06/16 07:45:52;;;;;;;19.17;9.85;;;20.80;99.90;;;;;;4873664;29;20057;-91
2021/06/16 07:48:27;;;;;;;17.20;9.55;;;20.90;99.90;;;;;;4888243;29;20053;-90
2021/06/16 07:51:01;;;;;;;20.33;8.68;;;20.90;99.90;;;;;;4877380;29;20045;-90
2021/06/16 07:53:31;;;;;;;17.80;8.60;;;21.00;99.90;;;;;;4888261;29;20060;-92
2021/06/16 07:56:05;;;;;;;21.02;8.45;;;21.30;99.90;;;;;;4846185;29;20307;-90
2021/06/16 07:58:37;;;;;;;15.95;9.25;;;21.20;99.90;;;;;;4880870;29;20071;-92
2021/06/16 08:01:25;;;;;;;16.27;7.72;;;21.30;99.90;;;;;;4874461;29;20063;-89
2021/06/16 08:04:52;;;;;;;;;;;;;;;;;;;;;
2021/06/16 08:07:49;;;;;;;19.90;8.43;;;21.50;99.90;;;;;;4900867;29;20053;-88
2021/06/16 08:11:22;;;;;;;19.67;8.50;;;21.70;99.90;;;;;;4854992;29;20096;-88
2021/06/16 08:14:34;;;;;;;16.52;6.80;;;21.70;99.90;;;;;;4851830;29;20337;-89
2021/06/16 08:17:31;;;;;;;15.50;6.47;;;21.80;99.90;;;;;;4838919;29;20074;-89
2021/06/16 08:20:02;;;;;;;19.88;6.70;;;21.90;99.90;;;;;;4817910;29;20171;-89
2021/06/16 08:22:35;;;;;;;12.85;5.97;;;21.90;99.70;;;;;;4837486;29;20506;-88
2021/06/16 08:25:56;;;;;;;21.10;6.57;;;21.90;99.80;;;;;;4816362;29;20058;-89
2021/06/16 08:28:26;;;;;;;13.25;5.63;;;22.00;98.70;;;;;;4822329;29;20057;-89
2021/06/16 08:30:55;;;;;;;6.97;3.83;;;22.00;99.00;;;;;;4833728;29;20059;-87
2021/06/16 08:33:29;;;;;;;12.70;4.75;;;20.80;98.40;;;;;;4815489;29;20077;-88
2021/06/16 08:36:01;;;;;;;9.93;4.93;;;22.10;98.30;;;;;;4843589;29;20061;-89
2021/06/16 08:38:34;;;;;;;12.60;4.88;;;22.10;98.20;;;;;;4856363;29;20049;-89
2021/06/16 08:41:19;;;;;;;12.52;5.20;;;22.30;97.90;;;;;;4844613;29;20047;-89
2021/06/16 08:44:02;;;;;;;5.13;3.78;;;22.30;96.80;;;;;;4895328;29;20055;-89
2021/06/16 08:46:49;;;;;;;10.27;4.30;;;23.00;97.30;;;;;;4886089;29;20507;-88
2021/06/16 08:49:23;;;;;;;10.40;4.32;;;22.20;96.90;;;;;;4870432;29;20521;-90
2021/06/16 08:51:59;;;;;;;8.63;3.78;;;22.50;96.70;;;;;;4876316;29;20066;-88
2021/06/16 08:54:40;;;;;;;10.77;4.28;;;22.60;96.70;;;;;;4874212;29;20053;-89
2021/06/16 08:57:11;;;;;;;13.82;4.15;;;22.70;96.50;;;;;;4882037;29;20049;-90
2021/06/16 08:59:49;;;;;;;7.13;3.55;;;22.80;96.50;;;;;;4850608;29;20057;-89
2021/06/16 09:02:21;;;;;;;13.55;5.00;;;23.10;96.00;;;;;;4886262;29;20040;-89
2021/06/16 09:04:53;;;;;;;5.60;2.75;;;23.00;96.10;;;;;;4853422;29;20105;-90
2021/06/16 09:07:28;;;;;;;9.77;3.50;;;23.00;95.70;;;;;;4861565;29;20057;-88
2021/06/16 09:10:20;;;;;;;8.18;2.63;;;23.10;95.30;;;;;;4860828;29;20064;-91
2021/06/16 09:12:59;;;;;;;10.52;3.38;;;23.20;94.40;;;;;;4873408;29;20029;-89
2021/06/16 09:15:39;;;;;;;9.23;2.30;;;23.30;94.10;;;;;;4875919;29;20037;-89
2021/06/16 09:18:46;;;;;;;6.65;2.30;;;23.40;94.20;;;;;;4877079;29;20520;-88
2021/06/16 09:21:41;;;;;;;5.32;2.63;;;23.50;93.70;;;;;;4856766;29;20057;-90
2021/06/16 09:24:18;;;;;;;7.82;2.70;;;23.50;92.50;;;;;;4843969;29;20041;-89
2021/06/16 09:27:00;;;;;;;3.17;1.88;;;23.60;92.50;;;;;;4855104;29;20049;-87
2021/06/16 09:29:29;;;;;;;10.40;2.88;;;23.60;91.10;;;;;;4891063;29;20064;-89
2021/06/16 09:32:09;;;;;;;7.63;2.35;;;23.60;91.30;;;;;;4875379;29;20045;-88
2021/06/16 09:34:44;;;;;;;4.47;2.10;;;22.30;90.50;;;;;;4860898;29;20045;-88
2021/06/16 09:37:14;;;;;;;3.97;2.28;;;23.70;89.90;;;;;;4879263;29;20486;-89
2021/06/16 09:40:11;;;;;;;10.90;3.35;;;23.70;90.40;;;;;;4855571;29;20055;-88
2021/06/16 09:42:59;;;;;;;6.78;1.98;;;23.70;90.30;;;;;;4853485;29;20064;-90
2021/06/16 09:45:38;;;;;;;4.60;2.47;;;23.80;90.30;;;;;;4860288;29;20057;-89
2021/06/16 09:48:43;;;;;;;;;;;23.90;90.00;;;;;;4864943;29;20061;-89
2021/06/16 09:51:34;;;;;;;3.78;2.15;;;24.00;90.00;;;;;;4904544;29;19929;-88
2021/06/16 09:54:22;;;;;;;6.75;2.53;;;24.10;90.10;;;;;;4865284;29;20065;-88
2021/06/16 09:57:18;;;;;;;6.93;2.78;;;24.20;90.20;;;;;;4881029;29;20047;-88
2021/06/16 10:00:12;;;;;;;4.97;2.78;;;24.30;90.00;;;;;;4894617;29;20039;-89
2021/06/16 10:03:10;;;;;;;6.28;2.75;;;24.40;89.20;;;;;;4875312;29;20057;-88
2021/06/16 10:06:16;;;;;;;8.40;2.83;;;24.00;88.90;;;;;;4861240;29;20053;-88
2021/06/16 10:08:47;;;;;;;9.77;2.25;;;24.60;87.70;;;;;;4874052;29;20039;-87
2021/06/16 10:11:20;;;;;;;7.35;2.05;;;24.70;88.00;;;;;;4890237;29;20048;-87
2021/06/16 10:13:50;;;;;;;5.05;2.15;;;24.80;87.60;;;;;;4864999;29;20057;-87
2021/06/16 10:16:21;;;;;;;3.88;1.95;;;24.90;87.10;;;;;;4899145;23;20056;-88
2021/06/16 10:18:52;;;;;;;5.63;2.58;;;25.00;87.40;;;;;;4888155;29;20053;-91
2021/06/16 10:21:22;;;;;;;6.85;2.63;;;25.10;87.40;;;;;;4880000;29;20041;-88
2021/06/16 10:23:53;;;;;;;4.05;2.00;;;24.70;87.20;;;;;;4885983;29;20038;-88
2021/06/16 10:26:30;;;;;;;6.70;2.78;;;25.30;87.40;;;;;;4886703;29;20057;-87
2021/06/16 10:29:10;;;;;;;6.10;2.55;;;25.40;87.30;;;;;;4860186;29;20057;-88
2021/06/16 10:31:41;;;;;;;4.30;2.33;;;25.60;87.50;;;;;;4842612;29;20401;-88
2021/06/16 10:34:16;;;;;;;6.90;2.35;;;25.70;87.10;;;;;;4877921;29;20061;-87
2021/06/16 10:37:08;;;;;;;10.18;3.00;;;25.90;87.30;;;;;;4870394;29;20037;-88
2021/06/16 10:39:40;;;;;;;3.92;2.10;;;26.00;85.80;;;;;;4871298;29;20057;-89
2021/06/16 10:42:13;;;;;;;10.60;3.05;;;26.10;86.40;;;;;;4870765;29;20512;-87
2021/06/16 10:45:19;;;;;;;9.27;3.42;;;26.20;85.50;;;;;;4854299;29;20048;-88
2021/06/16 10:48:16;;;;;;;13.52;2.70;;;26.20;84.40;;;;;;4859206;29;20083;-88
2021/06/16 10:50:52;;;;;;;5.57;2.25;;;26.20;84.70;;;;;;4878612;29;20049;-88
2021/06/16 10:53:26;;;;;;;7.53;1.92;;;26.30;84.50;;;;;;4867284;29;20481;-87
2021/06/16 10:56:05;;;;;;;5.78;2.05;;;26.30;84.70;;;;;;4857850;29;20073;-88
2021/06/16 10:58:45;;;;;;;10.35;3.47;;;26.40;84.50;;;;;;4857991;29;20073;-88
2021/06/16 11:01:20;;;;;;;6.90;2.00;;;26.60;84.40;;;;;;4849150;29;20045;-88
2021/06/16 11:03:57;;;;;;;4.18;2.05;;;26.70;83.70;;;;;;4843867;29;20506;-88
2021/06/16 11:06:33;;;;;;;;;;;26.70;83.60;;;;;;4855421;29;20517;-88
2021/06/16 11:09:47;;;;;;;6.85;2.42;;;26.70;83.20;;;;;;4852604;29;19935;-88
2021/06/16 11:12:33;;;;;;;5.03;1.70;;;26.70;83.20;;;;;;4853706;29;20048;-87
2021/06/16 11:15:23;;;;;;;7.07;1.95;;;26.80;83.60;;;;;;4835294;29;20054;-85
2021/06/16 11:17:59;;;;;;;7.65;2.20;;;26.90;83.60;;;;;;4863948;29;20050;-85
2021/06/16 11:20:41;;;;;;;8.07;2.20;;;27.00;83.10;;;;;;4832487;29;20065;-85
2021/06/16 11:23:20;;;;;;;5.22;2.72;;;27.10;83.10;;;;;;4823632;29;20058;-87
2021/06/16 11:25:54;;;;;;;4.95;1.98;;;27.20;82.90;;;;;;4864788;29;20057;-86
2021/06/16 11:28:40;;;;;;;5.68;2.30;;;27.30;82.60;;;;;;4844079;29;20051;-86
2021/06/16 11:31:10;;;;;;;6.32;2.08;;;27.30;82.40;;;;;;4854211;29;20085;-86
2021/06/16 11:33:45;;;;;;;5.05;2.78;;;27.50;83.10;;;;;;4859492;29;20084;-86
2021/06/16 11:36:35;;;;;;;5.47;2.08;;;27.70;82.60;;;;;;4865485;29;20057;-86
2021/06/16 11:39:09;;;;;;;5.07;2.03;;;27.70;82.50;;;;;;4865738;29;20433;-84
2021/06/16 11:41:45;;;;;;;5.20;1.67;;;27.80;82.70;;;;;;4856626;29;20053;-85
2021/06/16 11:44:19;;;;;;;6.72;2.25;;;27.90;82.20;;;;;;4849503;29;20041;-85
2021/06/16 11:46:48;;;;;;;5.25;2.40;;;28.00;82.10;;;;;;4872213;29;20069;-86
2021/06/16 11:49:25;;;;;;;5.05;2.00;;;28.00;81.70;;;;;;4870462;29;20053;-87
2021/06/16 11:52:09;;;;;;;5.60;2.28;;;28.10;81.80;;;;;;4840146;29;20065;-87
2021/06/16 11:54:40;;;;;;;6.03;2.40;;;27.60;81.60;;;;;;4870433;29;20050;-86
2021/06/16 11:57:18;;;;;;;9.65;2.63;;;28.10;82.10;;;;;;4868553;29;20057;-87
2021/06/16 11:59:52;;;;;;;6.47;2.75;;;28.30;82.30;;;;;;4838819;29;20049;-86
2021/06/16 12:02:28;;;;;;;11.63;2.53;;;28.50;82.50;;;;;;4867505;29;20149;-86
2021/06/16 12:05:07;;;;;;;4.43;2.53;;;28.60;82.30;;;;;;4834644;29;20054;-88
2021/06/16 12:07:44;;;;;;;4.95;1.98;;;28.80;81.60;;;;;;4870873;29;20053;-88
2021/06/16 12:10:25;;;;;;;7.97;2.60;;;28.90;82.10;;;;;;4872526;29;20204;-86
2021/06/16 12:13:05;;;;;;;6.47;2.70;;;29.10;82.10;;;;;;4863760;29;20075;-87
2021/06/16 12:15:42;;;;;;;7.18;2.20;;;29.10;81.40;;;;;;4875453;29;20056;-86
2021/06/16 12:18:18;;;;;;;7.88;2.45;;;29.30;82.30;;;;;;4871224;29;20584;-86
2021/06/16 12:20:58;;;;;;;5.32;2.20;;;29.40;81.00;;;;;;4872619;29;20056;-86
2021/06/16 12:23:37;;;;;;;10.63;2.60;;;29.40;81.30;;;;;;4856624;29;20064;-88
2021/06/16 12:26:11;;;;;;;5.18;2.78;;;29.50;81.20;;;;;;4874440;29;20065;-86
2021/06/16 12:28:43;;;;;;;8.02;3.05;;;29.50;81.70;;;;;;4854480;29;20056;-87
2021/06/16 12:31:14;;;;;;;9.77;3.15;;;29.50;81.10;;;;;;4846017;29;20057;-87
2021/06/16 12:33:50;;;;;;;8.05;3.05;;;29.50;81.20;;;;;;4871842;29;20061;-87
2021/06/16 12:36:24;;;;;;;7.18;2.78;;;29.30;81.70;;;;;;4843958;29;20072;-87
2021/06/16 12:39:17;;;;;;;6.93;3.10;;;29.50;81.90;;;;;;4862108;29;20059;-86
2021/06/16 12:42:11;;;;;;;9.45;3.30;;;29.70;81.20;;;;;;4866627;29;20064;-87
2021/06/16 12:44:41;;;;;;;8.18;3.03;;;29.80;80.90;;;;;;4868765;29;20064;-85
2021/06/16 12:47:14;;;;;;;6.57;2.58;;;29.90;81.20;;;;;;4853233;29;20057;-85
2021/06/16 12:49:49;;;;;;;10.00;4.88;;;30.10;81.30;;;;;;4869409;29;20064;-86
2021/06/16 12:52:38;;;;;;;13.50;3.78;;;30.10;80.90;;;;;;4854029;29;20055;-86
2021/06/16 12:55:15;;;;;;;7.65;3.35;;;30.10;79.80;;;;;;4857270;29;20046;-87
2021/06/16 12:57:54;;;;;;;9.65;4.13;;;30.00;80.80;;;;;;4844103;29;20054;-85
2021/06/16 13:00:39;;;;;;;7.18;3.50;;;29.90;80.70;;;;;;4893861;29;20053;-86
2021/06/16 13:03:21;;;;;;;8.73;3.22;;;29.80;81.40;;;;;;4864600;29;20053;-85
2021/06/16 13:06:01;;;;;;;6.40;2.20;;;29.90;81.10;;;;;;4860742;29;20057;-86
2021/06/16 13:08:51;;;;;;;7.72;3.10;;;30.10;80.30;;;;;;4848157;29;20065;-86
2021/06/16 13:11:33;;;;;;;7.82;3.33;;;30.00;80.50;;;;;;4856174;29;20054;-85
2021/06/16 13:14:31;;;;;;;9.60;3.28;;;30.00;80.90;;;;;;4860701;29;20068;-87
2021/06/16 13:17:18;;;;;;;5.18;3.15;;;30.20;80.30;;;;;;4857875;29;20111;-86
2021/06/16 13:19:57;;;;;;;7.45;3.13;;;30.30;79.80;;;;;;4860286;29;20057;-87
2021/06/16 13:22:34;;;;;;;8.02;3.65;;;30.60;78.80;;;;;;4873480;29;20079;-88
2021/06/16 13:25:08;;;;;;;10.80;3.35;;;30.50;78.90;;;;;;4863931;29;20053;-88
2021/06/16 13:28:02;;;;;;;9.57;2.70;;;30.50;79.00;;;;;;4878131;29;20269;-87
2021/06/16 13:30:45;;;;;;;10.82;2.80;;;30.90;78.40;;;;;;4857459;29;20048;-86
2021/06/16 13:33:31;;;;;;;4.55;3.30;;;31.20;78.20;;;;;;4862739;29;20038;-89
2021/06/16 13:36:43;;;;;;;5.38;3.47;;;31.50;76.70;;;;;;4871410;29;20057;-89
2021/06/16 13:39:21;;;;;;;8.10;3.58;;;31.90;77.00;;;;;;4854103;29;20049;-88
2021/06/16 13:41:59;;;;;;;5.97;2.70;;;32.00;75.40;;;;;;4868770;29;20056;-87
2021/06/16 13:44:38;;;;;;;9.38;3.22;;;32.40;75.70;;;;;;4846870;29;20050;-87
2021/06/16 13:47:40;;;;;;;6.20;2.80;;;32.40;75.40;;;;;;4851112;29;20418;-89
2021/06/16 13:50:33;;;;;;;9.68;3.00;;;32.60;74.10;;;;;;4885217;29;20045;-87
2021/06/16 13:54:12;;;;;;;6.70;2.50;;;32.60;74.20;;;;;;4858529;29;20068;-88
2021/06/16 13:56:44;;;;;;;6.93;2.67;;;32.90;72.90;;;;;;4868419;29;20053;-88
2021/06/16 13:59:17;;;;;;;7.97;3.40;;;33.20;73.10;;;;;;4851419;29;20152;-89
2021/06/16 14:01:48;;;;;;;6.22;2.38;;;33.20;72.30;;;;;;4835242;29;20046;-88
2021/06/16 14:04:20;;;;;;;7.80;2.90;;;33.30;71.40;;;;;;4829759;29;20056;-89